Time;durP1;ratioP1;P1;durP2;ratioP2;P2;SDS_P1;SDS_P2;PMS_P1;PMS_P2;Temp;Humidity;BMP_temperature;BMP_pressure;BME280_temperature;BME280_humidity;BME280_pressure;Samples;Min_cycle;Max_cycle;Signal;HPM_P1;HPM_P2
2023/12/06 00:02:12;;;;;;;66.40;30.03;;;2.20;99.90;;;;;;5136116;27;20520;-67
2023/12/06 00:04:38;;;;;;;69.27;30.87;;;2.20;99.90;;;;;;5136138;27;20658;-67
2023/12/06 00:07:04;;;;;;;64.47;28.10;;;2.20;99.90;;;;;;5135743;27;20219;-67
2023/12/06 00:09:29;;;;;;;69.27;31.67;;;2.20;99.90;;;;;;5135449;27;20692;-66
2023/12/06 00:11:55;;;;;;;69.07;29.53;;;2.10;99.90;;;;;;5116995;27;20213;-67
2023/12/06 00:14:21;;;;;;;74.63;33.67;;;2.10;99.90;;;;;;5116761;27;20222;-67
2023/12/06 00:16:47;;;;;;;84.83;33.77;;;2.10;99.90;;;;;;5116738;27;20272;-66
2023/12/06 00:19:13;;;;;;;71.83;33.90;;;2.00;99.90;;;;;;5117202;27;20608;-67
2023/12/06 00:21:38;;;;;;;77.03;32.60;;;2.00;99.90;;;;;;5136231;27;20245;-67
2023/12/06 00:24:05;;;;;;;80.97;34.87;;;2.00;99.90;;;;;;5136841;27;20622;-66
2023/12/06 00:26:31;;;;;;;81.97;33.10;;;2.00;99.90;;;;;;5136255;27;20665;-66
2023/12/06 00:28:56;;;;;;;77.13;33.77;;;2.00;99.90;;;;;;5116842;27;20179;-66
2023/12/06 00:31:22;;;;;;;76.77;32.57;;;2.00;99.90;;;;;;5135343;27;20711;-67
2023/12/06 00:33:48;;;;;;;78.30;34.33;;;2.00;99.90;;;;;;5135063;27;20228;-66
2023/12/06 00:36:14;;;;;;;73.40;31.13;;;1.90;99.90;;;;;;5116381;27;20226;-66
2023/12/06 00:38:39;;;;;;;80.63;32.80;;;1.90;99.90;;;;;;5134855;27;20191;-67
2023/12/06 00:41:05;;;;;;;73.03;32.23;;;2.00;99.90;;;;;;5116446;27;20179;-67
2023/12/06 00:43:31;;;;;;;78.47;35.23;;;2.00;99.90;;;;;;5116026;27;20171;-66
2023/12/06 00:45:57;;;;;;;76.90;32.87;;;1.90;99.90;;;;;;5134710;27;20646;-67
2023/12/06 00:48:23;;;;;;;84.37;33.83;;;2.00;99.90;;;;;;5116383;27;20196;-67
2023/12/06 00:50:49;;;;;;;81.67;35.47;;;2.00;99.90;;;;;;5116446;27;20259;-67
2023/12/06 00:53:14;;;;;;;84.27;35.50;;;1.90;99.90;;;;;;5134603;27;20615;-67
2023/12/06 00:55:40;;;;;;;76.20;32.47;;;1.90;99.90;;;;;;5134564;27;20573;-67
2023/12/06 00:58:06;;;;;;;66.37;29.80;;;2.00;99.90;;;;;;5134760;27;20249;-67
2023/12/06 01:00:32;;;;;;;76.53;31.47;;;2.00;99.90;;;;;;5134908;27;20171;-67
2023/12/06 01:02:57;;;;;;;71.87;30.97;;;2.00;99.90;;;;;;5134400;27;20172;-67
2023/12/06 01:05:23;;;;;;;72.97;30.03;;;2.00;99.90;;;;;;5134568;27;20194;-67
2023/12/06 01:07:49;;;;;;;58.30;28.33;;;2.10;99.90;;;;;;5134664;27;20532;-66
2023/12/06 01:10:15;;;;;;;61.93;27.33;;;2.00;99.90;;;;;;5134365;27;20224;-67
2023/12/06 01:12:40;;;;;;;65.40;28.93;;;2.00;99.90;;;;;;5134342;27;20175;-67
2023/12/06 01:15:07;;;;;;;57.27;28.53;;;2.00;99.90;;;;;;5134065;27;20638;-67
2023/12/06 01:17:33;;;;;;;55.43;27.73;;;1.90;99.90;;;;;;5134163;27;20210;-67
2023/12/06 01:19:59;;;;;;;53.73;27.70;;;1.90;99.90;;;;;;5134209;27;20167;-66
2023/12/06 01:22:25;;;;;;;54.77;26.57;;;1.90;99.90;;;;;;5134748;27;20170;-67
2023/12/06 01:24:57;;;;;;;54.23;27.17;;;1.90;99.90;;;;;;5135326;28;20168;-66
2023/12/06 01:27:22;;;;;;;55.07;27.57;;;1.90;99.90;;;;;;5134094;28;20187;-67
2023/12/06 01:29:48;;;;;;;51.63;28.07;;;1.80;99.90;;;;;;5133934;28;20179;-66
2023/12/06 01:32:14;;;;;;;49.50;26.90;;;1.90;99.90;;;;;;5134774;28;20251;-67
2023/12/06 01:34:40;;;;;;;61.53;27.10;;;1.80;99.90;;;;;;5134328;28;20244;-67
2023/12/06 01:37:05;;;;;;;53.90;27.77;;;1.90;99.90;;;;;;5133882;28;20195;-67
2023/12/06 01:39:31;;;;;;;54.40;27.60;;;1.90;99.90;;;;;;5115488;28;20180;-67
2023/12/06 01:41:57;;;;;;;53.03;27.03;;;1.90;99.90;;;;;;5133969;28;20174;-67
2023/12/06 01:44:23;;;;;;;49.93;26.50;;;1.90;99.90;;;;;;5133711;28;20665;-67
2023/12/06 01:46:48;;;;;;;58.47;26.50;;;1.90;99.90;;;;;;5135120;27;20636;-67
2023/12/06 01:49:15;;;;;;;51.23;27.13;;;1.90;99.90;;;;;;5138264;27;20168;-66
2023/12/06 01:51:41;;;;;;;49.47;26.27;;;1.90;99.90;;;;;;5119835;27;20184;-67
2023/12/06 01:54:08;;;;;;;58.30;28.17;;;1.80;99.90;;;;;;5138149;27;20561;-67
2023/12/06 01:56:35;;;;;;;58.87;27.27;;;1.70;99.90;;;;;;5138159;27;20203;-67
2023/12/06 01:59:00;;;;;;;50.23;27.10;;;1.70;99.90;;;;;;5137834;27;20248;-67
2023/12/06 02:01:26;;;;;;;62.93;30.57;;;1.80;99.90;;;;;;5138036;27;20199;-67
2023/12/06 02:03:52;;;;;;;57.57;30.60;;;1.70;99.90;;;;;;5119473;27;20171;-67
2023/12/06 02:06:18;;;;;;;62.00;29.40;;;1.70;99.90;;;;;;5137874;27;20238;-67
2023/12/06 02:08:45;;;;;;;60.90;30.03;;;1.70;99.90;;;;;;5137773;27;20204;-66
2023/12/06 02:11:11;;;;;;;65.43;31.27;;;1.70;99.90;;;;;;5137689;27;20681;-67
2023/12/06 02:13:38;;;;;;;62.73;30.90;;;1.70;99.90;;;;;;5137405;27;20254;-67
2023/12/06 02:16:05;;;;;;;65.63;31.67;;;1.60;99.90;;;;;;5137901;27;20662;-67
2023/12/06 02:18:31;;;;;;;65.50;30.90;;;1.50;99.90;;;;;;5137470;27;20219;-67
2023/12/06 02:20:58;;;;;;;64.97;31.97;;;1.50;99.90;;;;;;5137580;27;20180;-67
2023/12/06 02:23:30;;;;;;;58.53;30.17;;;1.50;99.90;;;;;;5119050;27;20175;-67
2023/12/06 02:25:55;;;;;;;57.27;31.10;;;1.50;99.90;;;;;;5137713;27;20610;-67
2023/12/06 02:28:23;;;;;;;58.17;30.00;;;1.50;99.90;;;;;;5137126;27;20191;-67
2023/12/06 02:30:49;;;;;;;56.43;29.73;;;1.60;99.90;;;;;;5118835;27;20236;-67
2023/12/06 02:33:14;;;;;;;55.43;30.30;;;1.60;99.90;;;;;;5118709;27;20613;-67
2023/12/06 02:35:46;;;;;;;50.57;29.03;;;1.60;99.90;;;;;;5118627;27;20176;-67
2023/12/06 02:38:15;;;;;;;62.57;30.00;;;1.60;99.90;;;;;;5137146;27;20236;-66
2023/12/06 02:40:43;;;;;;;64.93;32.83;;;1.60;99.90;;;;;;5118570;27;20268;-66
2023/12/06 02:43:09;;;;;;;59.63;30.00;;;1.60;99.90;;;;;;5137122;27;20164;-66
2023/12/06 02:45:34;;;;;;;55.30;30.50;;;1.50;99.90;;;;;;5137191;27;20188;-66
2023/12/06 02:48:03;;;;;;;62.50;31.87;;;1.50;99.90;;;;;;5137122;27;20262;-66
2023/12/06 02:50:29;;;;;;;60.10;30.83;;;1.40;99.90;;;;;;5118567;27;20239;-66
2023/12/06 02:52:55;;;;;;;59.07;31.00;;;1.40;99.90;;;;;;5136796;27;20251;-66
2023/12/06 02:55:21;;;;;;;60.23;30.70;;;1.40;99.90;;;;;;5118326;27;20601;-66
2023/12/06 02:57:46;;;;;;;59.77;30.37;;;1.40;99.90;;;;;;5117670;27;20571;-66
2023/12/06 03:00:13;;;;;;;52.37;27.63;;;1.40;99.90;;;;;;5136561;27;20168;-66
2023/12/06 03:02:38;;;;;;;51.97;27.50;;;1.50;99.90;;;;;;5136653;27;20192;-66
2023/12/06 03:05:04;;;;;;;52.17;28.23;;;1.50;99.90;;;;;;5136633;27;20600;-66
2023/12/06 03:07:30;;;;;;;58.77;29.43;;;1.50;99.90;;;;;;5118042;27;20203;-66
2023/12/06 03:09:56;;;;;;;50.87;27.70;;;1.60;99.90;;;;;;5136548;27;20199;-66
2023/12/06 03:12:22;;;;;;;54.03;27.63;;;1.50;99.90;;;;;;5136847;27;20243;-66
2023/12/06 03:14:48;;;;;;;51.03;27.33;;;1.40;99.90;;;;;;5136268;27;20662;-66
2023/12/06 03:17:13;;;;;;;41.90;23.60;;;1.40;99.90;;;;;;5136713;27;20207;-66
2023/12/06 03:19:39;;;;;;;51.83;25.97;;;1.40;99.90;;;;;;5118023;27;20178;-67
2023/12/06 03:22:05;;;;;;;42.33;24.33;;;1.30;99.90;;;;;;5117961;27;20596;-67
2023/12/06 03:24:31;;;;;;;41.23;23.07;;;1.30;99.90;;;;;;5136271;27;20171;-67
2023/12/06 03:26:56;;;;;;;44.20;25.57;;;1.40;99.90;;;;;;5136689;27;20188;-67
2023/12/06 03:29:22;;;;;;;44.43;25.60;;;1.40;99.90;;;;;;5117368;27;20178;-67
2023/12/06 03:31:48;;;;;;;48.67;24.00;;;1.40;99.90;;;;;;5136619;27;20183;-67
2023/12/06 03:34:14;;;;;;;36.73;22.97;;;1.40;99.90;;;;;;5136283;27;20184;-67
2023/12/06 03:36:39;;;;;;;38.97;21.57;;;1.40;99.90;;;;;;5135857;27;20274;-67
2023/12/06 03:39:06;;;;;;;33.47;20.47;;;1.30;99.90;;;;;;5117463;27;20561;-66
2023/12/06 03:41:32;;;;;;;32.10;20.77;;;1.30;99.90;;;;;;5135869;27;20190;-67
2023/12/06 03:43:58;;;;;;;39.13;21.33;;;1.20;99.90;;;;;;5135859;27;20709;-66
2023/12/06 03:46:24;;;;;;;40.97;21.93;;;1.20;99.90;;;;;;5135617;27;20623;-66
2023/12/06 03:48:49;;;;;;;41.77;24.27;;;1.20;99.90;;;;;;5135990;27;20603;-66
2023/12/06 03:51:15;;;;;;;43.70;23.27;;;1.20;99.90;;;;;;5117249;27;20183;-67
2023/12/06 03:53:41;;;;;;;51.93;23.90;;;1.10;99.90;;;;;;5135848;27;20176;-66
2023/12/06 03:56:08;;;;;;;48.73;25.47;;;1.10;99.90;;;;;;5135787;27;20196;-66
2023/12/06 03:58:34;;;;;;;48.13;23.17;;;1.10;99.90;;;;;;5135260;27;20196;-65
2023/12/06 04:01:00;;;;;;;50.27;24.77;;;1.00;99.90;;;;;;5117080;27;20304;-66
2023/12/06 04:03:26;;;;;;;49.47;25.00;;;1.00;99.90;;;;;;5135466;27;20191;-65
2023/12/06 04:05:52;;;;;;;47.23;24.87;;;1.00;99.90;;;;;;5135470;27;20176;-65
2023/12/06 04:08:18;;;;;;;41.23;23.27;;;1.00;99.90;;;;;;5135306;27;20194;-64
2023/12/06 04:10:43;;;;;;;44.40;22.77;;;1.00;99.90;;;;;;5134444;27;20183;-65
2023/12/06 04:13:09;;;;;;;42.43;24.43;;;1.10;99.90;;;;;;5135576;27;20638;-65
2023/12/06 04:15:35;;;;;;;42.73;25.13;;;1.00;99.90;;;;;;5134912;27;20514;-65
2023/12/06 04:18:01;;;;;;;40.70;24.20;;;1.00;99.90;;;;;;5135163;27;20686;-65
2023/12/06 04:20:27;;;;;;;40.90;23.70;;;1.00;99.90;;;;;;5135196;27;20160;-65
2023/12/06 04:22:53;;;;;;;42.07;23.63;;;1.10;99.90;;;;;;5135669;27;20171;-66
2023/12/06 04:25:19;;;;;;;46.70;24.90;;;1.10;99.90;;;;;;5135086;27;20167;-66
2023/12/06 04:27:45;;;;;;;41.97;24.47;;;1.10;99.90;;;;;;5116470;27;20248;-65
2023/12/06 04:30:11;;;;;;;41.83;25.67;;;1.10;99.90;;;;;;5134891;27;20179;-65
2023/12/06 04:32:37;;;;;;;38.57;24.40;;;1.10;99.90;;;;;;5135576;27;20233;-65
2023/12/06 04:35:05;;;;;;;45.10;25.40;;;1.00;99.90;;;;;;5135574;27;20176;-65
2023/12/06 04:37:30;;;;;;;41.97;26.37;;;1.00;99.90;;;;;;5134649;27;20204;-65
2023/12/06 04:39:56;;;;;;;44.50;26.03;;;1.00;99.90;;;;;;5134893;27;20187;-65
2023/12/06 04:42:22;;;;;;;49.43;29.00;;;1.00;99.90;;;;;;5116661;27;20656;-65
2023/12/06 04:44:48;;;;;;;55.57;29.97;;;1.00;99.90;;;;;;5134281;27;20197;-65
2023/12/06 04:47:13;;;;;;;56.40;31.73;;;0.90;99.90;;;;;;5134531;27;20199;-65
2023/12/06 04:49:39;;;;;;;64.67;34.70;;;0.80;99.90;;;;;;5134615;27;20178;-65
2023/12/06 04:52:05;;;;;;;58.67;33.37;;;0.80;99.90;;;;;;5135196;27;20175;-65
2023/12/06 04:54:31;;;;;;;61.40;34.50;;;0.80;99.90;;;;;;5134597;27;20176;-65
2023/12/06 04:56:58;;;;;;;61.93;33.07;;;0.80;99.90;;;;;;5115908;27;20207;-65
2023/12/06 04:59:24;;;;;;;56.17;35.30;;;0.90;99.90;;;;;;5134171;27;20835;-66
2023/12/06 05:01:50;;;;;;;59.30;33.23;;;0.80;99.90;;;;;;5134357;27;20259;-67
2023/12/06 05:04:16;;;;;;;63.30;36.87;;;0.80;99.90;;;;;;5134344;27;20228;-66
2023/12/06 05:06:41;;;;;;;59.17;35.03;;;0.70;99.90;;;;;;5134438;27;20176;-66
2023/12/06 05:09:07;;;;;;;64.10;33.97;;;0.60;99.90;;;;;;5134466;27;20177;-67
2023/12/06 05:11:34;;;;;;;64.80;38.07;;;0.60;99.90;;;;;;5134404;27;20164;-66
2023/12/06 05:13:59;;;;;;;66.53;36.33;;;0.60;99.90;;;;;;5133861;27;20168;-66
2023/12/06 05:16:25;;;;;;;68.23;36.97;;;0.60;99.90;;;;;;5134609;27;20203;-67
2023/12/06 05:18:51;;;;;;;66.43;37.20;;;0.60;99.90;;;;;;5135483;27;20523;-66
2023/12/06 05:21:17;;;;;;;72.27;39.60;;;0.70;99.90;;;;;;5133945;27;20187;-66
2023/12/06 05:23:43;;;;;;;73.67;39.67;;;0.70;99.90;;;;;;5134237;27;20200;-66
2023/12/06 05:26:09;;;;;;;72.83;39.13;;;0.70;99.90;;;;;;5115725;28;20179;-66
2023/12/06 05:28:34;;;;;;;69.33;38.07;;;0.70;99.90;;;;;;5115683;28;20231;-66
2023/12/06 05:31:00;;;;;;;72.70;38.83;;;0.60;99.90;;;;;;5133838;28;20167;-66
2023/12/06 05:33:27;;;;;;;67.70;37.17;;;0.60;99.90;;;;;;5134026;28;20202;-66
2023/12/06 05:35:55;;;;;;;69.10;37.23;;;0.60;99.90;;;;;;5134279;28;20760;-66
2023/12/06 05:38:21;;;;;;;68.40;38.83;;;0.60;99.90;;;;;;5133962;28;20684;-66
2023/12/06 05:40:48;;;;;;;75.93;42.23;;;0.50;99.90;;;;;;5113425;28;20169;-66
2023/12/06 05:43:14;;;;;;;74.43;41.70;;;0.50;99.90;;;;;;5113657;28;20176;-66
2023/12/06 05:45:40;;;;;;;78.47;40.93;;;0.60;99.90;;;;;;5094828;28;20189;-67
2023/12/06 05:48:06;;;;;;;71.20;38.87;;;0.50;99.90;;;;;;5113608;28;20188;-67
2023/12/06 05:50:31;;;;;;;72.07;37.80;;;0.60;99.90;;;;;;5114341;28;20172;-67
2023/12/06 05:52:58;;;;;;;72.70;40.30;;;0.60;99.90;;;;;;5113556;28;20199;-67
2023/12/06 05:55:23;;;;;;;71.93;41.93;;;0.60;99.90;;;;;;5113626;28;20330;-67
2023/12/06 05:57:49;;;;;;;71.57;41.03;;;0.60;99.90;;;;;;5113263;28;20208;-67
2023/12/06 06:00:17;;;;;;;80.20;41.73;;;0.60;99.90;;;;;;5113021;28;20173;-67
2023/12/06 06:02:44;;;;;;;78.97;40.87;;;0.60;99.90;;;;;;5113613;28;20588;-67
2023/12/06 06:05:13;;;;;;;81.03;43.63;;;0.70;99.90;;;;;;5113548;28;20172;-67
2023/12/06 06:07:39;;;;;;;73.60;40.40;;;0.60;99.90;;;;;;5113097;28;20275;-67
2023/12/06 06:10:05;;;;;;;90.43;46.77;;;0.70;99.90;;;;;;5127882;28;20216;-67
2023/12/06 06:12:31;;;;;;;85.60;44.67;;;0.60;99.90;;;;;;5115151;28;20556;-67
2023/12/06 06:14:57;;;;;;;78.33;42.90;;;0.60;99.90;;;;;;5133423;28;20172;-67
2023/12/06 06:17:23;;;;;;;81.77;43.40;;;0.60;99.90;;;;;;5133835;28;20211;-68
2023/12/06 06:19:49;;;;;;;89.60;46.40;;;0.60;99.90;;;;;;5133622;28;20254;-67
2023/12/06 06:22:15;;;;;;;83.67;45.27;;;0.60;99.90;;;;;;5133663;28;20261;-67
2023/12/06 06:24:40;;;;;;;83.03;43.53;;;0.60;99.90;;;;;;5115245;28;20168;-67
2023/12/06 06:27:06;;;;;;;78.93;45.97;;;0.60;99.90;;;;;;5134054;28;20184;-67
2023/12/06 06:29:32;;;;;;;76.97;42.80;;;0.60;99.90;;;;;;5114947;28;20580;-67
2023/12/06 06:31:58;;;;;;;80.87;44.80;;;0.60;99.90;;;;;;5133616;27;20199;-67
2023/12/06 06:34:24;;;;;;;79.03;45.23;;;0.60;99.90;;;;;;5137651;27;20210;-67
2023/12/06 06:36:49;;;;;;;80.03;44.77;;;0.60;99.90;;;;;;5137166;27;20207;-67
2023/12/06 06:39:15;;;;;;;87.10;43.93;;;0.70;99.90;;;;;;5118734;27;20182;-67
2023/12/06 06:41:41;;;;;;;83.23;43.93;;;0.70;99.90;;;;;;5137125;27;20168;-67
2023/12/06 06:44:07;;;;;;;81.03;44.87;;;0.70;99.90;;;;;;5137041;27;20172;-66
2023/12/06 06:46:33;;;;;;;81.70;43.50;;;0.70;99.90;;;;;;5118439;27;20206;-67
2023/12/06 06:48:59;;;;;;;76.23;43.57;;;0.70;99.90;;;;;;5118768;27;20176;-66
2023/12/06 06:51:38;;;;;;;85.67;45.10;;;0.70;99.90;;;;;;5136975;27;20199;-67
2023/12/06 06:54:06;;;;;;;84.33;43.10;;;0.80;99.90;;;;;;5137256;27;20744;-67
2023/12/06 06:56:32;;;;;;;82.73;45.17;;;0.80;99.90;;;;;;5118382;27;20211;-66
2023/12/06 06:58:58;;;;;;;80.90;46.23;;;0.80;99.90;;;;;;5136605;27;20168;-65
2023/12/06 07:01:24;;;;;;;85.13;45.27;;;0.80;99.90;;;;;;5118357;27;20259;-66
2023/12/06 07:03:50;;;;;;;87.17;44.70;;;0.80;99.90;;;;;;5118272;27;20178;-67
2023/12/06 07:06:16;;;;;;;89.37;44.43;;;0.80;99.90;;;;;;5136688;27;20182;-67
2023/12/06 07:08:42;;;;;;;85.90;44.37;;;0.80;99.90;;;;;;5136482;27;20196;-67
2023/12/06 07:11:08;;;;;;;88.63;45.80;;;0.90;99.90;;;;;;5118109;27;20187;-66
2023/12/06 07:13:37;;;;;;;84.00;45.73;;;0.90;99.90;;;;;;5136741;27;20190;-67
2023/12/06 07:16:03;;;;;;;93.47;47.37;;;0.90;99.90;;;;;;5136096;27;20195;-66
2023/12/06 07:18:31;;;;;;;88.03;45.43;;;0.90;99.90;;;;;;5118003;27;20700;-67
2023/12/06 07:21:01;;;;;;;100.50;48.07;;;0.90;99.90;;;;;;5118006;27;20263;-67
2023/12/06 07:23:26;;;;;;;87.87;47.70;;;1.00;99.90;;;;;;5117895;27;20217;-67
2023/12/06 07:25:53;;;;;;;91.70;43.93;;;1.00;99.90;;;;;;5136339;27;20168;-67
2023/12/06 07:28:19;;;;;;;95.70;45.97;;;1.00;99.90;;;;;;5136337;27;20249;-67
2023/12/06 07:30:45;;;;;;;93.13;45.23;;;1.10;99.90;;;;;;5136006;27;20168;-67
2023/12/06 07:33:11;;;;;;;105.50;46.07;;;1.10;99.90;;;;;;5117913;27;20171;-66
2023/12/06 07:35:37;;;;;;;97.07;48.13;;;1.10;99.90;;;;;;5117705;27;20172;-67
2023/12/06 07:38:05;;;;;;;91.40;47.50;;;1.20;99.90;;;;;;5135992;27;20677;-67
2023/12/06 07:40:31;;;;;;;98.23;47.13;;;1.10;99.90;;;;;;5135927;27;20172;-67
2023/12/06 07:42:56;;;;;;;101.23;46.33;;;1.10;99.90;;;;;;5136161;27;20171;-67
2023/12/06 07:45:22;;;;;;;101.60;49.00;;;1.10;99.90;;;;;;5134356;27;20598;-67
2023/12/06 07:47:49;;;;;;;91.70;46.57;;;1.20;99.90;;;;;;5135906;27;20196;-67
2023/12/06 07:50:15;;;;;;;98.93;48.00;;;1.20;99.90;;;;;;5135913;27;20186;-66
2023/12/06 07:52:41;;;;;;;91.33;45.83;;;1.20;99.90;;;;;;5136037;27;20586;-67
2023/12/06 07:55:08;;;;;;;96.63;47.63;;;1.20;99.90;;;;;;5135693;27;20167;-66
2023/12/06 07:57:34;;;;;;;90.10;47.50;;;1.20;99.90;;;;;;5135782;27;20602;-67
2023/12/06 08:00:00;;;;;;;88.10;45.70;;;1.20;99.90;;;;;;5135396;27;20168;-67
2023/12/06 08:02:26;;;;;;;84.03;45.20;;;1.20;99.90;;;;;;5135877;27;20508;-67
2023/12/06 08:04:52;;;;;;;97.03;50.27;;;1.30;99.90;;;;;;5136098;27;20174;-66
2023/12/06 08:07:18;;;;;;;106.57;54.07;;;1.30;99.90;;;;;;5135396;27;20192;-67
2023/12/06 08:09:44;;;;;;;143.87;73.03;;;1.40;99.90;;;;;;5116857;27;20728;-67
2023/12/06 08:12:10;;;;;;;108.10;54.90;;;1.40;99.90;;;;;;5135388;27;20676;-67
2023/12/06 08:14:39;;;;;;;107.30;53.00;;;1.50;99.90;;;;;;5116601;27;20176;-66
2023/12/06 08:17:06;;;;;;;89.73;48.63;;;1.50;99.90;;;;;;5135744;27;20607;-66
2023/12/06 08:19:31;;;;;;;93.17;47.23;;;1.50;99.90;;;;;;5117087;27;20525;-66
2023/12/06 08:21:57;;;;;;;91.80;48.93;;;1.50;99.90;;;;;;5135155;27;20172;-67
2023/12/06 08:24:23;;;;;;;85.73;45.60;;;1.50;99.90;;;;;;5135062;27;20164;-67
2023/12/06 08:26:50;;;;;;;89.37;49.40;;;1.50;99.90;;;;;;5135473;27;20196;-67
2023/12/06 08:29:15;;;;;;;87.37;47.80;;;1.50;99.90;;;;;;5116264;27;20176;-66
2023/12/06 08:31:41;;;;;;;87.10;47.30;;;1.50;99.90;;;;;;5116551;27;20224;-67
2023/12/06 08:34:07;;;;;;;79.87;47.33;;;1.50;99.90;;;;;;5116523;27;20262;-66
2023/12/06 08:36:33;;;;;;;83.20;45.27;;;1.60;99.90;;;;;;5135394;27;20198;-67
2023/12/06 08:38:58;;;;;;;83.63;43.57;;;1.50;99.90;;;;;;5135109;27;20174;-67
2023/12/06 08:41:24;;;;;;;79.53;45.27;;;1.50;99.90;;;;;;5134830;27;20645;-67
2023/12/06 08:43:50;;;;;;;78.00;44.30;;;1.50;99.90;;;;;;5134824;27;20167;-67
2023/12/06 08:46:16;;;;;;;79.17;45.07;;;1.60;99.90;;;;;;5115948;27;20202;-67
2023/12/06 08:48:41;;;;;;;73.50;43.20;;;1.60;99.90;;;;;;5134630;27;20196;-67
2023/12/06 08:51:08;;;;;;;71.27;41.63;;;1.60;99.90;;;;;;5134627;27;20172;-67
2023/12/06 08:53:35;;;;;;;70.67;41.30;;;1.60;99.90;;;;;;5116277;27;20612;-66
2023/12/06 08:56:01;;;;;;;78.40;44.90;;;1.60;99.90;;;;;;5134408;27;20199;-67
2023/12/06 08:58:27;;;;;;;75.23;42.00;;;1.60;99.90;;;;;;5134414;27;20187;-67
2023/12/06 09:00:53;;;;;;;71.47;41.90;;;1.60;99.90;;;;;;5134274;27;20172;-67
2023/12/06 09:03:19;;;;;;;69.43;42.13;;;1.60;99.90;;;;;;5134757;27;20251;-67
2023/12/06 09:05:45;;;;;;;71.23;42.17;;;1.60;99.90;;;;;;5134447;27;20219;-66
2023/12/06 09:08:11;;;;;;;76.00;44.17;;;1.60;99.90;;;;;;5134298;27;20228;-67
2023/12/06 09:10:38;;;;;;;74.27;40.40;;;1.60;99.90;;;;;;5134585;27;20702;-67
2023/12/06 09:13:04;;;;;;;74.07;42.67;;;1.60;99.90;;;;;;5134261;27;20196;-67
2023/12/06 09:15:30;;;;;;;71.80;42.23;;;1.60;99.90;;;;;;5134062;27;20669;-67
2023/12/06 09:17:56;;;;;;;61.70;38.93;;;1.60;99.90;;;;;;5134262;27;20253;-66
2023/12/06 09:20:22;;;;;;;68.93;40.13;;;1.70;99.90;;;;;;5134354;27;20638;-66
2023/12/06 09:22:47;;;;;;;70.77;41.53;;;1.70;99.90;;;;;;5134699;27;20243;-66
2023/12/06 09:25:13;;;;;;;77.00;41.57;;;1.70;99.90;;;;;;5134114;27;20179;-67
2023/12/06 09:27:39;;;;;;;75.00;42.43;;;1.70;99.90;;;;;;5134654;27;20191;-66
2023/12/06 09:30:05;;;;;;;78.73;42.63;;;1.70;99.90;;;;;;5133995;27;20237;-66
2023/12/06 09:32:31;;;;;;;76.37;42.00;;;1.70;99.90;;;;;;5115651;28;20175;-66
2023/12/06 09:34:57;;;;;;;72.90;39.17;;;1.80;99.90;;;;;;5134591;28;20190;-67
2023/12/06 09:37:22;;;;;;;69.53;38.10;;;1.90;99.90;;;;;;5133944;28;20214;-67
2023/12/06 09:39:49;;;;;;;77.17;41.43;;;1.90;99.90;;;;;;5134370;28;20187;-67
2023/12/06 09:42:15;;;;;;;78.83;42.00;;;1.90;99.90;;;;;;5115553;28;20183;-67
2023/12/06 09:44:45;;;;;;;73.50;40.47;;;1.90;99.90;;;;;;5133638;28;20247;-67
2023/12/06 09:47:12;;;;;;;79.23;40.93;;;1.90;99.90;;;;;;5134337;28;20199;-67
2023/12/06 09:49:37;;;;;;;76.43;38.93;;;1.90;99.90;;;;;;5134147;28;20164;-67
2023/12/06 09:52:19;;;;;;;76.87;40.50;;;2.00;99.90;;;;;;5134480;28;20233;-67
2023/12/06 09:54:46;;;;;;;82.37;40.77;;;2.00;99.90;;;;;;5133850;28;20160;-67
2023/12/06 09:57:12;;;;;;;76.53;38.63;;;2.10;99.90;;;;;;5115355;28;20563;-67
2023/12/06 09:59:38;;;;;;;75.13;39.93;;;2.10;99.90;;;;;;5134179;28;20221;-66
2023/12/06 10:02:04;;;;;;;85.10;42.13;;;2.20;99.90;;;;;;5133983;28;20247;-67
2023/12/06 10:04:30;;;;;;;78.00;40.20;;;2.20;99.90;;;;;;5133905;28;20242;-67
2023/12/06 10:06:57;;;;;;;81.93;40.57;;;2.20;99.90;;;;;;5133853;27;20231;-67
2023/12/06 10:09:23;;;;;;;77.57;41.57;;;2.20;99.90;;;;;;5137935;27;20172;-67
2023/12/06 10:11:49;;;;;;;79.37;41.83;;;2.30;99.90;;;;;;5138799;27;20537;-66
2023/12/06 10:14:18;;;;;;;80.83;43.10;;;2.30;99.90;;;;;;5137746;27;20236;-66
2023/12/06 10:16:46;;;;;;;77.63;41.90;;;2.30;99.90;;;;;;5118898;27;20250;-66
2023/12/06 10:19:19;;;;;;;75.37;42.03;;;2.30;99.90;;;;;;5137708;27;20225;-66
2023/12/06 10:21:47;;;;;;;78.57;42.03;;;2.30;99.90;;;;;;5119155;27;20201;-66
2023/12/06 10:24:12;;;;;;;83.77;43.20;;;2.40;99.90;;;;;;5119046;27;20250;-67
2023/12/06 10:26:39;;;;;;;73.30;39.57;;;2.40;99.90;;;;;;5118919;27;20270;-66
2023/12/06 10:29:05;;;;;;;75.13;41.70;;;2.50;99.90;;;;;;5137770;27;20168;-67
2023/12/06 10:31:42;;;;;;;80.43;42.97;;;2.50;99.90;;;;;;5118647;27;20554;-67
2023/12/06 10:34:09;;;;;;;74.40;42.17;;;2.50;99.90;;;;;;5118927;27;20180;-67
2023/12/06 10:36:38;;;;;;;77.13;42.17;;;2.50;99.90;;;;;;5137090;27;20199;-66
2023/12/06 10:39:11;;;;;;;77.33;44.20;;;2.50;99.90;;;;;;5137164;27;20221;-67
2023/12/06 10:41:40;;;;;;;72.03;42.23;;;2.50;99.90;;;;;;5137167;27;20156;-67
2023/12/06 10:44:09;;;;;;;78.80;43.17;;;2.50;99.90;;;;;;5137095;27;20165;-67
2023/12/06 10:46:36;;;;;;;71.77;39.77;;;2.60;99.90;;;;;;5136671;27;20199;-67
2023/12/06 10:49:03;;;;;;;71.20;40.50;;;2.50;99.90;;;;;;5118706;27;20643;-66
2023/12/06 10:51:30;;;;;;;74.83;41.97;;;2.50;99.90;;;;;;5118679;27;20179;-66
2023/12/06 10:53:59;;;;;;;73.73;39.47;;;2.50;99.90;;;;;;5118642;27;20662;-67
2023/12/06 10:56:27;;;;;;;72.47;42.77;;;2.60;99.90;;;;;;5136834;27;20198;-67
2023/12/06 10:58:57;;;;;;;71.50;40.10;;;2.70;99.90;;;;;;5137492;27;20524;-67
2023/12/06 11:01:24;;;;;;;71.70;41.97;;;2.60;99.90;;;;;;5137028;27;20235;-67
2023/12/06 11:03:52;;;;;;;70.73;41.00;;;2.60;99.90;;;;;;5137513;27;20179;-67
2023/12/06 11:06:59;;;;;;;69.47;41.03;;;2.70;99.90;;;;;;5137148;27;20183;-66
2023/12/06 11:09:38;;;;;;;68.17;40.60;;;2.70;99.90;;;;;;5137054;27;20199;-66
2023/12/06 11:12:26;;;;;;;67.93;40.60;;;2.80;99.90;;;;;;5138389;27;20662;-66
2023/12/06 11:15:16;;;;;;;71.17;42.93;;;2.80;99.90;;;;;;5136847;27;20172;-66
2023/12/06 11:17:51;;;;;;;66.60;42.63;;;2.80;99.90;;;;;;5136664;27;20199;-66
2023/12/06 11:20:17;;;;;;;67.70;39.27;;;2.80;99.90;;;;;;5136826;27;20243;-66
2023/12/06 11:22:43;;;;;;;64.40;40.90;;;2.80;99.90;;;;;;5136577;27;20191;-66
2023/12/06 11:25:09;;;;;;;65.70;40.03;;;2.80;99.90;;;;;;5137009;27;20254;-66
2023/12/06 11:27:40;;;;;;;64.37;40.23;;;2.90;99.90;;;;;;5117993;27;20206;-66
2023/12/06 11:30:19;;;;;;;60.87;38.30;;;2.90;99.90;;;;;;5136561;27;20194;-66
2023/12/06 11:32:46;;;;;;;67.03;38.30;;;2.90;99.90;;;;;;5136393;27;20634;-66
2023/12/06 11:35:13;;;;;;;56.57;37.80;;;2.90;99.90;;;;;;5118025;27;20669;-66
2023/12/06 11:37:38;;;;;;;59.77;38.50;;;2.90;99.90;;;;;;5136311;27;20203;-66
2023/12/06 11:40:20;;;;;;;55.67;37.33;;;2.90;99.90;;;;;;5136334;27;20179;-66
2023/12/06 11:42:57;;;;;;;54.60;36.53;;;3.00;99.90;;;;;;5118402;27;20323;-66
2023/12/06 11:45:27;;;;;;;53.20;36.87;;;3.00;99.90;;;;;;5136474;27;20176;-66
2023/12/06 11:47:53;;;;;;;55.33;37.43;;;3.00;99.90;;;;;;5136497;27;20191;-66
2023/12/06 11:50:21;;;;;;;53.57;34.57;;;3.00;99.90;;;;;;5136136;27;20172;-66
2023/12/06 11:52:52;;;;;;;52.13;34.77;;;3.00;99.90;;;;;;5136284;27;20200;-66
2023/12/06 11:55:20;;;;;;;51.53;35.23;;;3.00;99.90;;;;;;5135830;27;20178;-67
2023/12/06 11:58:08;;;;;;;53.30;35.13;;;3.00;99.90;;;;;;5135898;27;20288;-67
2023/12/06 12:00:38;;;;;;;48.43;34.00;;;3.00;99.90;;;;;;5135463;27;20148;-67
2023/12/06 12:03:04;;;;;;;53.67;36.23;;;3.10;99.90;;;;;;5135657;27;20164;-67
2023/12/06 12:05:33;;;;;;;47.37;34.03;;;3.10;99.90;;;;;;5135551;27;20195;-67
2023/12/06 12:08:03;;;;;;;48.87;33.17;;;3.10;99.90;;;;;;5135525;27;20670;-67
2023/12/06 12:10:30;;;;;;;48.60;34.67;;;3.10;99.90;;;;;;5135673;27;20171;-67
2023/12/06 12:12:56;;;;;;;48.83;34.13;;;3.10;99.90;;;;;;5135971;27;20172;-67
2023/12/06 12:15:25;;;;;;;50.23;34.53;;;3.00;99.90;;;;;;5116716;27;20669;-67
2023/12/06 12:17:52;;;;;;;49.10;34.83;;;3.00;99.90;;;;;;5135274;27;20287;-67
2023/12/06 12:20:18;;;;;;;49.17;34.80;;;3.10;99.90;;;;;;5135319;27;20176;-66
2023/12/06 12:22:51;;;;;;;47.00;33.70;;;3.10;99.90;;;;;;5116917;27;20436;-67
2023/12/06 12:25:17;;;;;;;49.23;33.40;;;3.10;99.90;;;;;;5135214;27;20188;-67
2023/12/06 12:27:47;;;;;;;46.63;32.93;;;3.20;99.90;;;;;;5117189;27;20195;-67
2023/12/06 12:30:14;;;;;;;53.33;35.73;;;3.20;99.90;;;;;;5115782;27;20263;-66
2023/12/06 12:32:51;;;;;;;46.33;33.57;;;3.20;99.90;;;;;;5135746;27;20276;-67
2023/12/06 12:35:17;;;;;;;53.83;36.83;;;3.30;99.90;;;;;;5135031;27;20624;-67